Time;durP1;ratioP1;P1;durP2;ratioP2;P2;SDS_P1;SDS_P2;PMS_P1;PMS_P2;Temp;Humidity;BMP_temperature;BMP_pressure;BME280_temperature;BME280_humidity;BME280_pressure;Samples;Min_cycle;Max_cycle;Signal;HPM_P1;HPM_P2
2023/09/18 00:01:39;;;;;;;27.60;11.18;;;16.70;99.90;;;;;;5007351;28;20049;-78
2023/09/18 00:04:06;;;;;;;27.08;12.57;;;16.70;99.90;;;;;;5007729;28;20047;-77
2023/09/18 00:06:32;;;;;;;24.02;11.02;;;16.60;99.90;;;;;;5006977;28;20056;-78
2023/09/18 00:08:58;;;;;;;22.52;10.93;;;16.60;99.90;;;;;;5006824;28;20050;-77
2023/09/18 00:11:24;;;;;;;29.55;11.40;;;16.60;99.90;;;;;;5024959;28;20639;-78
2023/09/18 00:13:50;;;;;;;29.40;11.85;;;16.60;99.90;;;;;;4991701;28;20049;-77
2023/09/18 00:16:15;;;;;;;27.42;10.27;;;16.60;99.90;;;;;;4990415;28;20128;-77
2023/09/18 00:18:42;;;;;;;21.85;11.43;;;16.60;99.90;;;;;;5007052;28;20125;-78
2023/09/18 00:21:10;;;;;;;23.33;10.60;;;16.60;99.90;;;;;;5007844;28;20210;-78
2023/09/18 00:23:38;;;;;;;27.35;11.93;;;16.60;99.90;;;;;;5006891;28;20578;-78
2023/09/18 00:26:04;;;;;;;23.65;10.73;;;16.60;99.90;;;;;;5007795;28;20324;-77
2023/09/18 00:28:30;;;;;;;21.92;10.52;;;16.60;99.90;;;;;;5006894;28;20045;-78
2023/09/18 00:30:55;;;;;;;26.00;11.57;;;16.60;99.90;;;;;;5024963;28;20042;-77
2023/09/18 00:33:21;;;;;;;23.08;12.27;;;16.50;99.90;;;;;;5006613;28;20137;-78
2023/09/18 00:35:48;;;;;;;19.45;10.73;;;16.50;99.90;;;;;;5006892;28;20049;-78
2023/09/18 00:38:14;;;;;;;22.50;11.52;;;16.50;99.90;;;;;;5023292;28;20305;-78
2023/09/18 00:40:40;;;;;;;21.85;11.85;;;16.50;99.90;;;;;;5024728;28;20120;-77
2023/09/18 00:43:05;;;;;;;25.85;11.43;;;16.50;99.90;;;;;;5025104;28;20033;-79
2023/09/18 00:45:31;;;;;;;23.00;11.20;;;16.50;99.90;;;;;;5023982;28;20089;-79
2023/09/18 00:47:56;;;;;;;26.45;12.88;;;16.50;99.90;;;;;;5024456;28;20042;-78
2023/09/18 00:50:22;;;;;;;27.55;12.32;;;16.50;99.90;;;;;;5024210;28;20038;-78
2023/09/18 00:52:49;;;;;;;22.33;11.57;;;16.50;99.90;;;;;;5022847;28;20404;-78
2023/09/18 00:55:15;;;;;;;21.80;11.80;;;16.50;99.90;;;;;;5006186;28;20045;-78
2023/09/18 00:57:42;;;;;;;23.42;11.18;;;16.50;99.90;;;;;;5006387;28;20412;-78
2023/09/18 01:00:08;;;;;;;23.60;12.57;;;16.50;99.90;;;;;;5007059;28;20042;-77
2023/09/18 01:02:34;;;;;;;25.30;13.55;;;16.40;99.90;;;;;;5006320;28;20045;-78
2023/09/18 01:05:01;;;;;;;25.55;12.98;;;16.50;99.90;;;;;;5023304;28;20102;-78
2023/09/18 01:07:28;;;;;;;24.08;11.27;;;16.40;99.90;;;;;;5000771;28;20089;-78
2023/09/18 01:09:54;;;;;;;26.30;13.30;;;16.50;99.90;;;;;;5024126;28;20476;-78
2023/09/18 01:12:39;;;;;;;22.73;12.45;;;16.50;99.90;;;;;;5023499;28;20060;-78
2023/09/18 01:15:08;;;;;;;22.05;12.00;;;16.40;99.90;;;;;;5001230;28;20046;-77
2023/09/18 01:17:40;;;;;;;27.30;12.48;;;16.40;99.90;;;;;;5006361;28;20046;-77
2023/09/18 01:20:09;;;;;;;24.40;13.05;;;16.40;99.90;;;;;;5006531;28;20041;-77
2023/09/18 01:22:35;;;;;;;21.80;11.50;;;16.40;99.90;;;;;;5023463;28;20135;-77
2023/09/18 01:25:01;;;;;;;20.45;11.57;;;16.40;99.90;;;;;;5006199;28;20150;-78
2023/09/18 01:27:26;;;;;;;19.75;11.65;;;16.40;99.90;;;;;;5023558;28;20046;-78
2023/09/18 01:29:53;;;;;;;21.80;12.07;;;16.40;99.90;;;;;;5023584;28;20041;-78
2023/09/18 01:32:19;;;;;;;22.77;11.70;;;16.30;99.90;;;;;;5005798;28;20041;-77
2023/09/18 01:34:50;;;;;;;26.70;13.48;;;16.40;99.90;;;;;;5005091;28;20116;-78
2023/09/18 01:37:20;;;;;;;21.67;11.20;;;16.40;99.90;;;;;;4985764;28;20050;-77
2023/09/18 01:39:48;;;;;;;23.70;12.25;;;16.30;99.90;;;;;;4992019;28;20049;-78
2023/09/18 01:42:14;;;;;;;25.88;12.93;;;16.40;99.90;;;;;;5005251;28;20041;-78
2023/09/18 01:44:40;;;;;;;23.40;12.48;;;16.30;99.90;;;;;;5005252;28;20407;-78
2023/09/18 01:47:08;;;;;;;24.27;13.13;;;16.30;99.90;;;;;;5006025;28;20045;-78
2023/09/18 01:49:38;;;;;;;23.23;11.45;;;16.40;99.90;;;;;;5005700;28;20068;-78
2023/09/18 01:52:05;;;;;;;25.33;13.45;;;16.40;99.90;;;;;;4980171;28;20213;-77
2023/09/18 01:54:32;;;;;;;27.52;13.23;;;16.40;99.90;;;;;;5005340;28;20041;-78
2023/09/18 01:56:58;;;;;;;26.63;12.02;;;16.40;99.90;;;;;;5022999;28;20068;-78
2023/09/18 01:59:24;;;;;;;24.70;12.50;;;16.40;99.90;;;;;;5021996;28;20030;-78
2023/09/18 02:01:51;;;;;;;24.45;13.13;;;16.40;99.90;;;;;;5021880;28;20037;-78
2023/09/18 02:04:17;;;;;;;24.50;12.77;;;16.40;99.90;;;;;;4988772;28;20121;-78
2023/09/18 02:06:44;;;;;;;27.48;12.30;;;16.40;99.90;;;;;;5004944;28;20061;-77
2023/09/18 02:09:09;;;;;;;23.92;12.82;;;16.30;99.90;;;;;;5003648;28;20061;-78
2023/09/18 02:11:40;;;;;;;29.65;13.18;;;16.40;99.90;;;;;;5005313;28;20037;-78
2023/09/18 02:14:07;;;;;;;22.98;13.18;;;16.40;99.90;;;;;;5005373;28;20053;-77
2023/09/18 02:16:33;;;;;;;24.65;12.27;;;16.40;99.90;;;;;;5004317;28;20484;-78
2023/09/18 02:18:59;;;;;;;24.52;12.90;;;16.40;99.90;;;;;;5022828;28;20380;-78
2023/09/18 02:21:25;;;;;;;22.63;12.32;;;16.40;99.90;;;;;;5004467;28;20056;-78
2023/09/18 02:23:52;;;;;;;23.92;10.63;;;16.40;99.90;;;;;;5003966;28;20053;-78
2023/09/18 02:26:18;;;;;;;24.15;12.48;;;16.40;99.90;;;;;;5004544;28;20072;-79
2023/09/18 02:28:44;;;;;;;24.90;13.02;;;16.40;99.90;;;;;;5022332;28;20057;-78
2023/09/18 02:31:09;;;;;;;29.27;13.13;;;16.40;99.90;;;;;;5023001;28;20077;-78
2023/09/18 02:33:35;;;;;;;24.90;12.10;;;16.40;99.90;;;;;;5022547;28;20392;-77
2023/09/18 02:36:00;;;;;;;27.35;12.88;;;16.40;99.90;;;;;;5004584;28;20415;-77
2023/09/18 02:38:27;;;;;;;23.73;12.13;;;16.40;99.90;;;;;;4987501;28;20493;-78
2023/09/18 02:40:54;;;;;;;24.08;11.32;;;16.40;99.90;;;;;;5004150;28;20089;-78
2023/09/18 02:43:20;;;;;;;21.92;12.07;;;16.40;99.90;;;;;;5004364;28;20042;-78
2023/09/18 02:45:46;;;;;;;23.85;11.38;;;16.40;99.90;;;;;;5004817;28;20041;-78
2023/09/18 02:48:11;;;;;;;25.30;12.45;;;16.40;99.90;;;;;;5004208;28;20048;-78
2023/09/18 02:50:37;;;;;;;24.95;12.52;;;16.50;99.90;;;;;;5005117;28;20597;-78
2023/09/18 02:53:03;;;;;;;24.45;11.90;;;16.40;99.90;;;;;;5003860;28;20057;-78
2023/09/18 02:55:29;;;;;;;24.60;11.93;;;16.40;99.90;;;;;;5004266;28;20049;-77
2023/09/18 02:57:54;;;;;;;29.13;12.35;;;16.40;99.90;;;;;;5004333;28;20286;-76
2023/09/18 03:00:21;;;;;;;23.08;11.27;;;16.40;99.90;;;;;;5022040;28;20061;-77
2023/09/18 03:02:46;;;;;;;25.60;13.10;;;16.40;99.90;;;;;;5022475;28;20134;-78
2023/09/18 03:05:12;;;;;;;23.85;11.75;;;16.40;99.90;;;;;;5022091;28;20084;-78
2023/09/18 03:07:37;;;;;;;22.00;10.73;;;16.40;99.90;;;;;;5003663;28;20478;-77
2023/09/18 03:10:04;;;;;;;21.35;11.35;;;16.40;99.90;;;;;;5021844;28;20534;-77
2023/09/18 03:12:30;;;;;;;20.25;11.80;;;16.40;99.90;;;;;;5004027;28;20060;-77
2023/09/18 03:14:56;;;;;;;25.67;12.55;;;16.50;99.90;;;;;;5007439;28;20041;-78
2023/09/18 03:17:21;;;;;;;24.15;12.77;;;16.40;99.90;;;;;;5007914;28;20041;-77
2023/09/18 03:19:50;;;;;;;20.45;10.93;;;16.50;99.90;;;;;;5026139;28;20041;-78
2023/09/18 03:22:16;;;;;;;26.05;12.23;;;16.50;99.90;;;;;;5024545;28;20041;-78
2023/09/18 03:24:41;;;;;;;24.17;11.73;;;16.50;99.90;;;;;;5008012;28;20045;-77
2023/09/18 03:27:07;;;;;;;25.70;12.27;;;16.50;99.90;;;;;;4992178;28;20047;-78
2023/09/18 03:29:33;;;;;;;29.08;12.52;;;16.50;99.90;;;;;;5007658;28;20048;-77
2023/09/18 03:31:59;;;;;;;19.48;11.65;;;16.50;99.90;;;;;;5007964;28;20484;-77
2023/09/18 03:34:26;;;;;;;25.45;11.93;;;16.50;99.90;;;;;;5025099;28;20045;-78
2023/09/18 03:36:53;;;;;;;23.60;12.00;;;16.50;99.90;;;;;;5006909;28;20049;-78
2023/09/18 03:39:19;;;;;;;23.50;12.57;;;16.50;99.90;;;;;;5000504;28;20037;-78
2023/09/18 03:41:44;;;;;;;29.30;13.27;;;16.50;99.90;;;;;;5025317;28;20065;-77
2023/09/18 03:44:10;;;;;;;23.52;12.25;;;16.50;99.90;;;;;;4991026;28;20048;-77
2023/09/18 03:46:36;;;;;;;25.30;13.27;;;16.60;99.90;;;;;;5007939;28;20514;-78
2023/09/18 03:49:02;;;;;;;22.60;12.32;;;16.60;99.90;;;;;;5007361;28;20044;-78
2023/09/18 03:51:29;;;;;;;24.45;11.65;;;16.60;99.90;;;;;;5007626;28;20093;-78
2023/09/18 03:53:55;;;;;;;29.17;12.98;;;16.60;99.90;;;;;;5023638;28;20049;-77
2023/09/18 03:56:21;;;;;;;24.77;12.85;;;16.60;99.90;;;;;;4991032;28;20107;-78
2023/09/18 03:58:49;;;;;;;29.35;13.20;;;16.60;99.90;;;;;;5025341;28;20041;-78
2023/09/18 04:01:15;;;;;;;26.38;13.65;;;16.60;99.90;;;;;;5004963;28;20394;-78
2023/09/18 04:03:41;;;;;;;26.63;12.25;;;16.60;99.90;;;;;;5007919;28;20392;-79
2023/09/18 04:06:07;;;;;;;24.70;12.57;;;16.60;99.90;;;;;;5007450;28;20799;-78
2023/09/18 04:08:33;;;;;;;22.48;12.20;;;16.60;99.90;;;;;;5006106;28;20128;-79
2023/09/18 04:10:58;;;;;;;25.85;13.65;;;16.60;99.90;;;;;;5024746;28;20085;-78
2023/09/18 04:13:25;;;;;;;25.05;12.95;;;16.60;99.90;;;;;;5006266;28;20037;-78
2023/09/18 04:15:51;;;;;;;26.45;13.07;;;16.60;99.90;;;;;;5024627;28;20080;-78
2023/09/18 04:18:17;;;;;;;25.92;11.73;;;16.60;99.90;;;;;;5006411;28;20041;-78
2023/09/18 04:20:42;;;;;;;25.52;13.20;;;16.60;99.90;;;;;;4991172;28;20053;-78
2023/09/18 04:23:27;;;;;;;24.23;11.68;;;16.60;99.90;;;;;;5005954;28;20041;-78
2023/09/18 04:25:54;;;;;;;25.15;12.45;;;16.60;99.90;;;;;;5023869;28;20050;-77
2023/09/18 04:28:21;;;;;;;28.38;12.75;;;16.70;99.90;;;;;;4989431;28;20045;-78
2023/09/18 04:30:47;;;;;;;26.27;12.82;;;16.70;99.90;;;;;;5006872;28;20049;-77
2023/09/18 04:33:16;;;;;;;21.75;10.35;;;16.70;99.90;;;;;;4993355;28;20480;-77
2023/09/18 04:35:43;;;;;;;24.52;11.30;;;16.70;99.90;;;;;;5024142;28;20099;-77
2023/09/18 04:38:14;;;;;;;23.92;12.85;;;16.70;99.90;;;;;;5022862;28;20087;-78
2023/09/18 04:40:39;;;;;;;24.23;12.57;;;16.70;99.90;;;;;;5023811;28;20045;-77
2023/09/18 04:43:05;;;;;;;26.00;12.32;;;16.70;99.90;;;;;;4990372;28;20088;-78
2023/09/18 04:45:31;;;;;;;26.52;12.90;;;16.70;99.90;;;;;;5023641;28;20432;-78
2023/09/18 04:47:57;;;;;;;27.17;12.98;;;16.70;99.90;;;;;;5021347;28;20092;-77
2023/09/18 04:50:23;;;;;;;27.02;12.27;;;16.70;99.90;;;;;;5016877;28;20088;-78
2023/09/18 04:52:50;;;;;;;26.13;13.25;;;16.70;99.90;;;;;;4993799;28;20536;-77
2023/09/18 04:55:16;;;;;;;24.98;12.52;;;16.70;99.90;;;;;;5000815;28;20045;-77
2023/09/18 04:57:42;;;;;;;30.45;12.57;;;16.70;99.90;;;;;;5005612;28;20061;-77
2023/09/18 05:00:09;;;;;;;31.20;12.77;;;16.70;99.90;;;;;;5006025;28;20037;-77
2023/09/18 05:02:35;;;;;;;24.45;12.15;;;16.70;99.90;;;;;;5006097;28;20045;-76
2023/09/18 05:05:03;;;;;;;25.73;12.68;;;16.70;99.90;;;;;;5023892;28;20052;-76
2023/09/18 05:07:28;;;;;;;27.83;12.45;;;16.70;99.90;;;;;;4981862;28;20336;-76
2023/09/18 05:09:54;;;;;;;22.83;11.30;;;16.70;99.90;;;;;;4981540;28;20137;-77
2023/09/18 05:12:19;;;;;;;28.05;12.02;;;16.70;99.90;;;;;;5023766;28;20528;-77
2023/09/18 05:14:45;;;;;;;31.00;12.63;;;16.80;99.90;;;;;;4983692;28;20041;-77
2023/09/18 05:17:14;;;;;;;24.98;12.20;;;16.80;99.90;;;;;;5002242;28;20463;-77
2023/09/18 05:19:40;;;;;;;30.70;13.48;;;16.80;99.90;;;;;;5005910;28;20063;-76
2023/09/18 05:22:06;;;;;;;28.25;11.88;;;16.80;99.90;;;;;;4995072;28;20042;-77
2023/09/18 05:24:32;;;;;;;31.15;13.40;;;16.80;99.90;;;;;;4997575;28;20129;-76
2023/09/18 05:26:58;;;;;;;22.90;13.30;;;16.80;99.90;;;;;;4996011;28;20025;-75
2023/09/18 05:29:24;;;;;;;32.20;12.27;;;16.90;99.90;;;;;;5013300;28;20089;-75
2023/09/18 05:31:49;;;;;;;26.73;12.68;;;16.80;99.90;;;;;;5017505;28;20046;-76
2023/09/18 05:34:15;;;;;;;26.10;12.50;;;16.90;99.90;;;;;;5014481;28;20421;-79
2023/09/18 05:36:41;;;;;;;32.83;13.30;;;16.90;99.90;;;;;;4994151;28;20050;-77
2023/09/18 05:39:12;;;;;;;25.33;11.98;;;16.90;99.90;;;;;;5000551;28;20037;-76
2023/09/18 05:41:38;;;;;;;29.30;12.68;;;16.90;99.90;;;;;;5000138;28;20144;-77
2023/09/18 05:44:06;;;;;;;27.05;12.63;;;16.90;99.90;;;;;;5002616;28;20056;-78
2023/09/18 05:46:33;;;;;;;31.50;13.30;;;16.90;99.90;;;;;;5021290;28;20050;-76
2023/09/18 05:49:00;;;;;;;28.88;12.35;;;16.90;99.90;;;;;;5017760;28;20049;-77
2023/09/18 05:51:26;;;;;;;28.38;13.57;;;16.90;99.90;;;;;;5018843;28;20054;-78
2023/09/18 05:53:52;;;;;;;28.67;12.15;;;16.90;99.90;;;;;;4996223;28;20038;-77
2023/09/18 05:56:17;;;;;;;28.35;13.43;;;16.90;99.90;;;;;;4997362;28;20037;-76
2023/09/18 05:58:43;;;;;;;26.58;11.50;;;16.90;99.90;;;;;;4999733;28;20091;-74
2023/09/18 06:01:09;;;;;;;29.65;11.52;;;16.90;99.90;;;;;;5002946;28;20041;-77
2023/09/18 06:03:35;;;;;;;32.10;12.90;;;17.00;99.90;;;;;;5002170;28;20037;-77
2023/09/18 06:06:02;;;;;;;33.42;13.52;;;17.10;99.90;;;;;;5012567;28;20155;-77
2023/09/18 06:08:30;;;;;;;29.15;11.63;;;17.10;99.90;;;;;;5009905;28;20072;-76
2023/09/18 06:10:56;;;;;;;30.23;11.60;;;17.10;99.90;;;;;;5021668;28;20076;-78
2023/09/18 06:13:23;;;;;;;23.33;12.18;;;17.10;99.90;;;;;;5003911;28;20183;-77
2023/09/18 06:15:50;;;;;;;32.85;12.68;;;17.20;99.90;;;;;;4986871;28;20053;-78
2023/09/18 06:18:16;;;;;;;33.63;12.23;;;17.20;99.90;;;;;;5003797;28;20352;-78
2023/09/18 06:20:43;;;;;;;27.98;11.73;;;17.20;99.90;;;;;;5020926;28;20144;-78
2023/09/18 06:23:09;;;;;;;32.50;13.18;;;17.20;99.90;;;;;;5002998;28;20067;-77
2023/09/18 06:25:34;;;;;;;31.63;13.00;;;17.20;99.90;;;;;;5022304;28;20045;-78
2023/09/18 06:28:02;;;;;;;32.33;11.60;;;17.30;99.90;;;;;;5003218;28;20034;-77
2023/09/18 06:30:30;;;;;;;30.00;11.50;;;17.30;99.90;;;;;;4987321;28;20392;-77
2023/09/18 06:32:56;;;;;;;26.30;9.73;;;17.30;99.90;;;;;;5004236;28;20345;-77
2023/09/18 06:35:22;;;;;;;21.10;10.18;;;17.30;99.90;;;;;;5002920;28;20038;-78
2023/09/18 06:37:48;;;;;;;23.90;9.55;;;17.30;99.90;;;;;;5003299;28;20049;-75
2023/09/18 06:40:13;;;;;;;24.58;10.93;;;17.30;99.90;;;;;;5021488;28;20483;-78
2023/09/18 06:42:39;;;;;;;23.13;8.65;;;17.30;99.90;;;;;;5003722;28;20569;-77
2023/09/18 06:45:06;;;;;;;24.02;8.80;;;17.30;99.90;;;;;;5006562;28;20122;-77
2023/09/18 06:47:33;;;;;;;19.25;7.50;;;17.40;99.90;;;;;;5004659;28;20627;-76
2023/09/18 06:50:00;;;;;;;15.52;6.50;;;17.30;99.90;;;;;;5007685;28;20409;-79
2023/09/18 06:52:27;;;;;;;15.27;5.95;;;17.40;99.90;;;;;;5000548;28;20403;-77
2023/09/18 06:54:53;;;;;;;8.35;4.70;;;17.40;99.90;;;;;;4990720;28;20038;-78
2023/09/18 06:57:21;;;;;;;8.38;3.65;;;17.40;99.90;;;;;;4990561;28;20041;-78
2023/09/18 06:59:46;;;;;;;9.63;4.07;;;17.40;99.90;;;;;;5025473;28;20046;-79
2023/09/18 07:02:14;;;;;;;10.32;4.07;;;17.40;99.90;;;;;;5007493;28;20038;-76
2023/09/18 07:04:44;;;;;;;11.45;4.63;;;17.30;99.90;;;;;;5006640;28;20049;-76
2023/09/18 07:07:14;;;;;;;14.30;4.70;;;17.30;99.90;;;;;;5015844;28;20508;-79
2023/09/18 07:09:43;;;;;;;9.93;3.83;;;17.30;99.90;;;;;;5006981;28;20041;-80
2023/09/18 07:12:09;;;;;;;8.77;4.25;;;17.40;99.90;;;;;;5007065;28;20041;-79
2023/09/18 07:14:35;;;;;;;6.45;3.28;;;17.30;99.90;;;;;;5007209;28;20048;-81
2023/09/18 07:17:02;;;;;;;7.00;3.00;;;17.30;99.90;;;;;;5007465;28;20060;-81
2023/09/18 07:19:27;;;;;;;6.85;3.58;;;17.30;99.90;;;;;;5007386;28;20514;-80
2023/09/18 07:21:53;;;;;;;8.80;3.05;;;17.30;99.90;;;;;;5006170;28;20045;-80
2023/09/18 07:24:20;;;;;;;8.55;4.13;;;17.30;99.90;;;;;;5006178;28;20033;-80
2023/09/18 07:26:46;;;;;;;6.55;2.95;;;17.30;99.90;;;;;;5025275;28;20050;-80
2023/09/18 07:29:13;;;;;;;6.82;2.75;;;17.30;99.90;;;;;;5006868;28;20069;-80
2023/09/18 07:31:40;;;;;;;5.13;2.70;;;17.30;99.90;;;;;;4990094;28;20064;-76
2023/09/18 07:34:06;;;;;;;5.60;2.90;;;17.40;99.90;;;;;;5025451;28;20495;-81
2023/09/18 07:36:31;;;;;;;5.63;2.72;;;17.40;99.90;;;;;;5005560;28;20049;-80
2023/09/18 07:38:57;;;;;;;13.88;4.03;;;17.40;99.90;;;;;;5007452;28;20085;-84
2023/09/18 07:41:23;;;;;;;7.97;3.47;;;17.40;99.90;;;;;;5023891;28;20110;-80
2023/09/18 07:43:48;;;;;;;16.65;5.55;;;17.40;99.90;;;;;;5025036;28;20496;-81
2023/09/18 07:46:14;;;;;;;6.85;3.30;;;17.40;99.90;;;;;;5024124;28;20037;-79
2023/09/18 07:48:40;;;;;;;6.18;3.38;;;17.40;99.90;;;;;;5024135;28;20396;-78
2023/09/18 07:51:05;;;;;;;7.60;3.90;;;17.40;99.90;;;;;;5006491;28;20100;-78
2023/09/18 07:53:32;;;;;;;9.30;4.07;;;17.40;99.90;;;;;;5024367;28;20330;-79
2023/09/18 07:55:58;;;;;;;9.90;3.78;;;17.40;99.90;;;;;;5006119;28;20349;-78
2023/09/18 07:58:27;;;;;;;12.55;4.65;;;17.40;99.90;;;;;;5023987;28;20168;-79
2023/09/18 08:00:54;;;;;;;11.50;3.85;;;17.40;99.90;;;;;;5023833;28;20049;-80
2023/09/18 08:03:22;;;;;;;8.75;3.92;;;17.50;99.90;;;;;;5023655;28;20282;-78
2023/09/18 08:05:50;;;;;;;11.05;4.30;;;17.50;99.90;;;;;;5023353;28;20134;-79
2023/09/18 08:08:16;;;;;;;13.15;4.28;;;17.50;99.90;;;;;;5005261;28;20052;-80
2023/09/18 08:10:42;;;;;;;10.70;3.67;;;17.50;99.90;;;;;;5006837;28;20037;-85
2023/09/18 08:13:07;;;;;;;15.60;3.47;;;17.50;99.90;;;;;;5023391;28;20403;-76
2023/09/18 08:15:33;;;;;;;13.18;4.97;;;17.50;99.90;;;;;;5023257;28;20041;-81
2023/09/18 08:17:58;;;;;;;11.88;4.00;;;17.50;99.90;;;;;;5023084;28;20141;-80
2023/09/18 08:20:26;;;;;;;7.53;3.70;;;17.60;99.90;;;;;;5023576;28;20029;-77
2023/09/18 08:22:51;;;;;;;9.98;4.40;;;17.60;99.90;;;;;;5005483;28;20049;-80
2023/09/18 08:25:17;;;;;;;12.48;4.72;;;17.60;99.90;;;;;;5023495;28;20439;-79
2023/09/18 08:27:44;;;;;;;12.00;4.15;;;17.60;99.90;;;;;;5006116;28;20530;-79
2023/09/18 08:30:11;;;;;;;10.25;4.15;;;17.60;99.90;;;;;;5023084;28;20671;-78
2023/09/18 08:32:38;;;;;;;11.95;4.28;;;17.70;99.90;;;;;;5023981;28;20196;-78
2023/09/18 08:35:05;;;;;;;10.98;4.13;;;17.70;99.90;;;;;;5023718;28;20223;-78
2023/09/18 08:37:31;;;;;;;11.32;4.22;;;17.70;99.90;;;;;;5004174;28;20073;-79
2023/09/18 08:39:56;;;;;;;8.90;3.55;;;17.70;99.90;;;;;;5006123;28;20249;-80
2023/09/18 08:42:23;;;;;;;11.38;3.17;;;17.70;99.90;;;;;;5005746;28;20151;-79
2023/09/18 08:44:54;;;;;;;12.82;3.60;;;17.80;99.90;;;;;;5005369;28;20108;-77
2023/09/18 08:47:20;;;;;;;11.30;3.70;;;17.80;99.90;;;;;;5023033;28;20387;-81
2023/09/18 08:49:49;;;;;;;9.77;4.60;;;17.90;99.90;;;;;;5023423;28;20042;-82
2023/09/18 08:52:15;;;;;;;9.82;3.55;;;17.90;99.90;;;;;;5021494;28;20037;-79
2023/09/18 08:54:43;;;;;;;11.93;2.90;;;18.00;99.90;;;;;;5005541;28;20064;-81
2023/09/18 08:57:09;;;;;;;9.65;2.92;;;18.00;99.90;;;;;;5022650;28;20167;-76
2023/09/18 08:59:36;;;;;;;20.52;5.00;;;18.00;99.90;;;;;;5005593;28;20151;-77
2023/09/18 09:02:02;;;;;;;14.00;4.75;;;18.10;99.90;;;;;;5023085;28;20046;-80
2023/09/18 09:04:28;;;;;;;12.05;5.03;;;18.10;99.90;;;;;;5022609;28;20391;-83
2023/09/18 09:06:57;;;;;;;11.07;4.30;;;18.20;99.90;;;;;;4993897;28;20050;-82
2023/09/18 09:09:23;;;;;;;22.88;5.68;;;18.20;99.90;;;;;;4986011;28;20034;-83
2023/09/18 09:11:52;;;;;;;16.70;5.32;;;18.20;99.90;;;;;;5022621;28;20407;-83
2023/09/18 09:14:21;;;;;;;21.23;5.93;;;18.30;99.90;;;;;;5021865;28;20045;-78
2023/09/18 09:16:48;;;;;;;17.33;6.70;;;18.30;99.90;;;;;;5021892;28;20076;-79
2023/09/18 09:19:16;;;;;;;20.33;6.07;;;18.30;99.90;;;;;;5022201;28;20112;-81
2023/09/18 09:21:43;;;;;;;18.48;6.65;;;18.30;99.90;;;;;;4987433;28;20053;-80
2023/09/18 09:24:13;;;;;;;19.88;6.18;;;18.30;99.90;;;;;;5022638;28;20050;-80
2023/09/18 09:26:40;;;;;;;20.17;7.10;;;18.40;99.90;;;;;;5021946;28;20049;-79
2023/09/18 09:29:20;;;;;;;24.40;7.63;;;18.40;99.90;;;;;;5022618;28;20045;-76
2023/09/18 09:31:46;;;;;;;19.77;7.25;;;18.50;99.90;;;;;;5022498;28;20049;-82
2023/09/18 09:34:23;;;;;;;24.08;8.13;;;18.50;99.90;;;;;;5021801;28;20396;-82
2023/09/18 09:36:56;;;;;;;29.27;8.48;;;18.50;99.90;;;;;;5001571;28;20453;-79
2023/09/18 09:39:24;;;;;;;24.52;7.57;;;18.60;99.90;;;;;;5002410;28;20540;-79
2023/09/18 09:41:51;;;;;;;32.15;7.70;;;18.60;99.90;;;;;;5021720;28;20049;-80
2023/09/18 09:44:18;;;;;;;27.02;8.52;;;18.70;99.90;;;;;;5022011;28;20582;-79
2023/09/18 09:46:51;;;;;;;26.23;8.85;;;18.70;99.90;;;;;;5021930;28;20048;-78
2023/09/18 09:49:19;;;;;;;25.95;9.80;;;18.80;99.90;;;;;;5022044;28;20055;-80
2023/09/18 09:51:45;;;;;;;29.33;9.88;;;18.80;99.90;;;;;;5020448;28;20506;-79
2023/09/18 09:54:12;;;;;;;39.42;10.13;;;18.90;99.90;;;;;;5022055;28;20397;-78
2023/09/18 09:56:50;;;;;;;35.70;11.57;;;18.90;99.90;;;;;;5021284;28;20045;-84
2023/09/18 09:59:18;;;;;;;46.22;11.45;;;18.80;99.90;;;;;;5001232;28;20447;-81
2023/09/18 10:01:48;;;;;;;39.78;12.48;;;18.80;99.90;;;;;;5017264;28;20056;-79
2023/09/18 10:04:17;;;;;;;42.53;12.60;;;18.80;99.90;;;;;;5003733;28;20052;-79
2023/09/18 10:06:52;;;;;;;37.35;11.80;;;18.80;99.90;;;;;;5001092;28;20050;-77
2023/09/18 10:09:19;;;;;;;41.67;12.95;;;18.80;99.90;;;;;;4984797;28;20520;-79
2023/09/18 10:11:48;;;;;;;33.55;12.70;;;18.90;99.90;;;;;;5001965;28;20123;-80
2023/09/18 10:14:17;;;;;;;34.28;11.32;;;18.80;99.90;;;;;;5016242;28;20030;-79
2023/09/18 10:16:49;;;;;;;30.08;12.38;;;18.90;99.90;;;;;;5020859;28;20041;-79
2023/09/18 10:19:23;;;;;;;34.90;12.73;;;18.90;99.90;;;;;;5003625;28;20042;-80
2023/09/18 10:22:00;;;;;;;33.40;11.75;;;18.90;99.90;;;;;;5003254;28;20653;-80
2023/09/18 10:24:31;;;;;;;30.88;12.10;;;18.90;99.90;;;;;;5003721;28;20540;-78
2023/09/18 10:27:05;;;;;;;25.65;12.07;;;18.90;99.90;;;;;;5003928;28;20053;-79
2023/09/18 10:29:34;;;;;;;27.40;11.23;;;18.90;99.90;;;;;;5020960;28;20136;-78
2023/09/18 10:32:04;;;;;;;26.77;12.20;;;19.00;99.90;;;;;;5021717;28;20041;-79
2023/09/18 10:34:31;;;;;;;31.85;12.63;;;19.00;99.90;;;;;;5020915;28;20045;-81
2023/09/18 10:37:00;;;;;;;29.77;13.07;;;19.10;99.90;;;;;;5001925;28;20119;-80
2023/09/18 10:39:28;;;;;;;31.52;11.88;;;19.10;99.90;;;;;;5021478;28;20041;-79
2023/09/18 10:41:55;;;;;;;26.38;11.13;;;19.10;99.90;;;;;;5003647;28;20417;-79
2023/09/18 10:44:22;;;;;;;29.77;12.13;;;19.10;99.90;;;;;;4999862;28;20042;-80
2023/09/18 10:46:52;;;;;;;22.58;11.48;;;19.10;99.90;;;;;;5003226;28;20488;-79
2023/09/18 10:49:19;;;;;;;30.98;11.82;;;19.10;99.90;;;;;;5003313;28;20053;-79
2023/09/18 10:51:46;;;;;;;23.42;11.60;;;19.20;99.90;;;;;;5019956;28;20037;-79
2023/09/18 10:54:17;;;;;;;18.90;10.70;;;19.20;99.90;;;;;;5020172;28;20253;-79
2023/09/18 10:56:43;;;;;;;17.08;10.18;;;19.20;99.90;;;;;;5003283;28;20061;-81
2023/09/18 10:59:09;;;;;;;17.95;9.27;;;19.20;99.90;;;;;;5019182;28;20029;-79
2023/09/18 11:01:36;;;;;;;14.02;8.60;;;19.20;99.90;;;;;;5002776;28;20320;-80
2023/09/18 11:04:07;;;;;;;13.18;7.25;;;19.20;99.90;;;;;;5020511;28;20559;-77
2023/09/18 11:06:52;;;;;;;16.70;8.07;;;19.20;99.90;;;;;;5012070;28;20060;-78
2023/09/18 11:09:21;;;;;;;12.50;8.07;;;19.30;99.90;;;;;;5003182;28;20049;-79
2023/09/18 11:11:56;;;;;;;11.93;7.60;;;19.30;99.90;;;;;;5020371;28;20543;-80
2023/09/18 11:14:22;;;;;;;11.00;7.65;;;19.20;99.90;;;;;;5019196;28;20041;-79
2023/09/18 11:16:49;;;;;;;10.73;7.05;;;19.20;99.90;;;;;;5001048;28;20064;-79
2023/09/18 11:19:19;;;;;;;8.00;6.22;;;19.20;99.90;;;;;;5020539;28;20407;-79
2023/09/18 11:21:45;;;;;;;7.95;6.53;;;19.20;99.90;;;;;;5001757;28;20045;-78
2023/09/18 11:24:21;;;;;;;7.20;6.20;;;19.20;99.90;;;;;;5020756;28;20041;-79
2023/09/18 11:26:49;;;;;;;6.85;5.45;;;19.20;99.90;;;;;;5020740;28;20099;-79
2023/09/18 11:29:21;;;;;;;6.50;4.97;;;19.20;99.90;;;;;;5003130;28;20060;-79
2023/09/18 11:31:53;;;;;;;5.03;4.15;;;19.20;99.90;;;;;;5021155;28;20049;-79
2023/09/18 11:34:22;;;;;;;;;;;19.30;99.90;;;;;;5021037;28;20277;-80
2023/09/18 11:36:48;;;;;;;6.60;3.60;;;19.40;99.90;;;;;;5023299;28;20323;-79
2023/09/18 11:39:39;;;;;;;4.65;3.47;;;19.40;99.90;;;;;;5023407;28;20238;-78
2023/09/18 11:42:28;;;;;;;4.18;3.30;;;19.40;99.90;;;;;;5005994;28;20041;-80
2023/09/18 11:44:56;;;;;;;3.72;3.10;;;19.40;99.90;;;;;;5001733;28;20096;-78
2023/09/18 11:47:26;;;;;;;5.18;3.80;;;19.50;99.90;;;;;;5003984;28;20539;-80
2023/09/18 11:49:57;;;;;;;4.95;3.55;;;19.50;99.90;;;;;;5024184;28;20047;-78
2023/09/18 11:52:28;;;;;;;6.55;3.85;;;19.40;99.90;;;;;;5004874;28;20049;-78
2023/09/18 11:54:57;;;;;;;4.25;3.85;;;19.40;99.90;;;;;;5006462;28;20041;-78
2023/09/18 11:57:23;;;;;;;6.63;3.97;;;19.50;99.90;;;;;;5007135;28;20087;-78
2023/09/18 11:59:50;;;;;;;5.63;4.40;;;19.50;99.90;;;;;;5005632;28;20489;-78
2023/09/18 12:02:38;;;;;;;6.82;5.90;;;19.50;99.90;;;;;;5022765;28;20068;-78
2023/09/18 12:05:11;;;;;;;7.43;5.25;;;19.60;99.90;;;;;;5002530;28;20281;-78
2023/09/18 12:07:37;;;;;;;9.70;5.47;;;19.70;99.90;;;;;;5000834;28;20093;-78
2023/09/18 12:10:06;;;;;;;6.68;5.40;;;19.70;99.90;;;;;;5003573;28;20496;-78
2023/09/18 12:12:32;;;;;;;6.63;5.35;;;19.80;99.90;;;;;;5003022;28;20041;-78
2023/09/18 12:14:58;;;;;;;9.75;6.03;;;19.90;99.90;;;;;;5001925;28;20449;-78
2023/09/18 12:17:24;;;;;;;7.53;4.47;;;19.90;99.90;;;;;;5003528;28;20049;-78
2023/09/18 12:19:55;;;;;;;5.53;4.35;;;20.00;99.90;;;;;;5004242;28;20483;-78
2023/09/18 12:22:29;;;;;;;9.35;5.93;;;20.00;99.90;;;;;;5001315;28;20049;-78
2023/09/18 12:25:11;;;;;;;8.63;5.25;;;20.00;99.90;;;;;;5003445;28;20038;-78
2023/09/18 12:27:37;;;;;;;7.25;5.32;;;19.90;99.90;;;;;;4986359;28;20049;-78
2023/09/18 12:30:04;;;;;;;6.55;5.03;;;19.90;99.90;;;;;;4986049;28;20046;-78
2023/09/18 12:32:32;;;;;;;5.95;4.60;;;19.90;99.90;;;;;;5002174;28;20432;-78
2023/09/18 12:34:58;;;;;;;8.90;5.60;;;19.90;99.90;;;;;;5002223;28;20048;-78